This is the latest recevied weather packets stored in our database for station/object WO5CID. If no packets are shown the sender has not sent any weather packets the latest 10 day(s).
| Time | Temp. | Humidity | Pressure | Rain* | Wind** | Luminosity | Snow |
|---|---|---|---|---|---|---|---|
| 1777579233 | 30.56° C | 50% | 1008.8 hPa | 0 mm | - | 873 W/m² | - |
| 1777578929 | 31.11° C | 50% | 1008.9 hPa | 0 mm | - | 290 W/m² | - |
| 1777578624 | 30° C | 51% | 1008.7 hPa | 0 mm | - | 446 W/m² | - |
| 1777578323 | 30° C | 52% | 1008.8 hPa | 0 mm | - | 251 W/m² | - |
| 1777578020 | 30° C | 53% | 1009 hPa | 0 mm | - | 236 W/m² | - |
| 1777577715 | 30° C | 53% | 1008.9 hPa | 0 mm | - | 434 W/m² | - |
| 1777577412 | 30° C | 55% | 1009 hPa | 0 mm | - | 611 W/m² | - |
| 1777577109 | 30.56° C | 52% | 1009.5 hPa | 0 mm | - | 255 W/m² | - |
| 1777576805 | 30.56° C | 57% | 1009.3 hPa | 0 mm | - | 456 W/m² | - |
| 1777576504 | 30° C | 57% | 1009.4 hPa | 0 mm | - | 680 W/m² | - |
| 1777576201 | 28.89° C | 61% | 1009.6 hPa | 0 mm | - | 855 W/m² | - |
| 1777575896 | 27.78° C | 69% | 1009.6 hPa | 0 mm | - | 695 W/m² | - |
| 1777575593 | 26.67° C | 74% | 1009.6 hPa | 0 mm | - | 485 W/m² | - |
| 1777575289 | 26.11° C | 77% | 1009.8 hPa | 0 mm | - | 274 W/m² | - |
| 1777574985 | 26.67° C | 77% | 1009.6 hPa | 0 mm | - | 90 W/m² | - |
| 1777574682 | 26.67° C | 77% | 1009.5 hPa | 0 mm | - | 490 W/m² | - |
| 1777574378 | 26.67° C | 77% | 1009.7 hPa | 3.05 mm | - | 233 W/m² | - |
| 1777574074 | 28.33° C | 69% | 1009.9 hPa | 3.05 mm | - | 1146 W/m² | - |
| 1777573769 | 30° C | 57% | 1009.6 hPa | 0 mm | - | 87 W/m² | - |
| 1777573465 | 30.56° C | 47% | 1009.6 hPa | 0 mm | - | 116 W/m² | - |
| 1777573161 | 31.11° C | 46% | 1009.4 hPa | 0 mm | - | 142 W/m² | - |
| 1777572858 | 31.67° C | 45% | 1009.5 hPa | 0 mm | - | 475 W/m² | - |
| 1777572554 | 31.11° C | 45% | 1009.6 hPa | 0 mm | - | 322 W/m² | - |
| 1777572249 | 30.56° C | 45% | 1009.8 hPa | 0 mm | - | 734 W/m² | - |
| 1777571945 | 31.67° C | 44% | 1009.8 hPa | 0 mm | - | 346 W/m² | - |
* Rain latest hour (hover to see other rain measurements)
** Current wind speed in m/s (hover to see current wind gust speed)